Time;durP1;ratioP1;P1;durP2;ratioP2;P2;SDS_P1;SDS_P2;PMS_P1;PMS_P2;Temp;Humidity;BMP_temperature;BMP_pressure;BME280_temperature;BME280_humidity;BME280_pressure;Samples;Min_cycle;Max_cycle;Signal;HPM_P1;HPM_P2
2021/11/11 00:00:30;;;;;;;6.05;4.78;;;;;;;-0.40;100.00;93521.41;2106125;28;20012;-87
2021/11/11 00:01:31;;;;;;;6.70;4.43;;;;;;;-0.41;100.00;93525.16;2097906;28;20028;-83
2021/11/11 00:02:31;;;;;;;4.70;4.30;;;;;;;-0.42;100.00;93527.03;2110716;28;20092;-87
2021/11/11 00:03:33;;;;;;;6.10;4.55;;;;;;;-0.38;100.00;93517.38;2106952;28;20020;-81
2021/11/11 00:04:34;;;;;;;5.78;4.20;;;;;;;-0.37;100.00;93516.28;2098590;28;20021;-87
2021/11/11 00:05:35;;;;;;;5.13;4.05;;;;;;;-0.36;100.00;93512.53;2115314;28;20578;-84
2021/11/11 00:06:39;;;;;;;6.00;4.13;;;;;;;-0.42;100.00;93518.38;2106755;28;20046;-86
2021/11/11 00:07:40;;;;;;;6.03;4.50;;;;;;;-0.45;100.00;93516.41;2099172;28;20020;-80
2021/11/11 00:08:41;;;;;;;7.25;4.50;;;;;;;-0.46;100.00;93514.91;2104638;28;20016;-83
2021/11/11 00:09:42;;;;;;;5.75;4.25;;;;;;;-0.46;100.00;93509.66;2098084;28;20135;-84
2021/11/11 00:10:43;;;;;;;6.32;4.63;;;;;;;-0.49;100.00;93510.31;2098260;28;20028;-85
2021/11/11 00:11:46;;;;;;;6.88;4.40;;;;;;;-0.48;100.00;93509.22;2104554;28;20030;-84
2021/11/11 00:12:49;;;;;;;5.30;4.15;;;;;;;-0.47;100.00;93506.25;2107175;28;20028;-83
2021/11/11 00:13:50;;;;;;;5.13;4.20;;;;;;;-0.46;100.00;93512.28;2106784;28;20019;-84
2021/11/11 00:14:52;;;;;;;5.95;4.20;;;;;;;-0.49;100.00;93502.44;2106643;28;20024;-85
2021/11/11 00:15:53;;;;;;;6.05;4.32;;;;;;;-0.46;100.00;93507.03;2098538;28;20048;-84
2021/11/11 00:16:54;;;;;;;7.85;4.45;;;;;;;-0.41;100.00;93510.16;2104659;28;20020;-83
2021/11/11 00:17:56;;;;;;;7.57;4.88;;;;;;;-0.40;100.00;93500.41;2106583;28;20062;-85
2021/11/11 00:18:57;;;;;;;5.50;4.30;;;;;;;-0.46;100.00;93502.53;2106564;28;20115;-85
2021/11/11 00:19:57;;;;;;;6.93;4.35;;;;;;;-0.55;100.00;93502.69;2090046;28;20021;-84
2021/11/11 00:21:02;;;;;;;4.63;3.70;;;;;;;-0.54;100.00;93504.19;2090010;28;20025;-83
2021/11/11 00:22:03;;;;;;;4.78;4.28;;;;;;;-0.36;100.00;93506.53;2090053;28;20032;-81
2021/11/11 00:23:04;;;;;;;5.50;4.05;;;;;;;-0.37;100.00;93497.88;2096315;28;20032;-82
2021/11/11 00:24:07;;;;;;;5.68;3.47;;;;;;;-0.29;100.00;93502.22;2105170;28;20118;-86
2021/11/11 00:25:09;;;;;;;7.15;3.63;;;;;;;-0.37;100.00;93500.50;2111011;28;20028;-86
2021/11/11 00:26:10;;;;;;;5.55;3.97;;;;;;;-0.33;100.00;93503.22;2102779;28;20016;-85
2021/11/11 00:27:11;;;;;;;4.30;3.63;;;;;;;-0.36;100.00;93507.28;2106430;28;20035;-87
2021/11/11 00:28:12;;;;;;;4.25;3.70;;;;;;;-0.42;100.00;93505.25;2106235;28;20053;-88
2021/11/11 00:29:13;;;;;;;4.00;3.20;;;;;;;-0.55;100.00;93500.06;2104466;28;20094;-87
2021/11/11 00:30:17;;;;;;;4.85;3.97;;;;;;;-0.61;100.00;93503.28;2104891;28;20119;-83
2021/11/11 00:31:18;;;;;;;6.82;3.70;;;;;;;-0.64;100.00;93507.31;2098380;28;20022;-86
2021/11/11 00:32:19;;;;;;;4.72;3.70;;;;;;;-0.55;100.00;93502.69;2098017;28;20027;-83
2021/11/11 00:33:20;;;;;;;9.32;3.72;;;;;;;-0.56;100.00;93501.16;2098077;28;20360;-82
2021/11/11 00:34:21;;;;;;;4.82;3.50;;;;;;;-0.45;100.00;93500.66;2089884;28;20020;-85
2021/11/11 00:35:24;;;;;;;6.38;3.97;;;;;;;-0.44;100.00;93504.81;2089854;28;20021;-82
2021/11/11 00:36:25;;;;;;;10.70;3.22;;;;;;;-0.65;100.00;93503.19;2097819;28;20028;-86
2021/11/11 00:37:26;;;;;;;5.10;3.50;;;;;;;-0.58;100.00;93510.47;2097912;28;20024;-88
2021/11/11 00:38:27;;;;;;;5.00;3.40;;;;;;;-0.59;100.00;93506.31;2090311;28;20021;-81
2021/11/11 00:39:28;;;;;;;3.15;2.85;;;;;;;-0.60;100.00;93507.41;2097789;28;21079;-80
2021/11/11 00:40:30;;;;;;;3.75;3.38;;;;;;;-0.62;100.00;93510.38;2106293;28;20030;-82
2021/11/11 00:41:31;;;;;;;5.22;3.55;;;;;;;-0.65;100.00;93510.28;2114038;28;20020;-83
2021/11/11 00:42:33;;;;;;;4.63;3.65;;;;;;;-0.66;100.00;93514.78;2111885;28;20022;-86
2021/11/11 00:43:34;;;;;;;5.38;3.00;;;;;;;-0.61;100.00;93505.91;2097721;28;20020;-84
2021/11/11 00:44:35;;;;;;;4.35;3.42;;;;;;;-0.61;100.00;93506.66;2098142;28;20499;-85
2021/11/11 00:45:38;;;;;;;5.13;3.47;;;;;;;-0.58;100.00;93503.34;2110939;28;20039;-83
2021/11/11 00:46:39;;;;;;;4.55;3.33;;;;;;;-0.48;100.00;93506.59;2104552;28;20392;-83
2021/11/11 00:47:42;;;;;;;5.65;3.70;;;;;;;-0.47;100.00;93500.25;2100292;28;20156;-84
2021/11/11 00:48:43;;;;;;;3.65;2.83;;;;;;;-0.51;100.00;93505.41;2092810;28;20012;-83
2021/11/11 00:49:45;;;;;;;4.00;3.17;;;;;;;-0.61;100.00;93511.91;2098100;28;20677;-85
2021/11/11 00:50:46;;;;;;;4.85;3.38;;;;;;;-0.56;100.00;93503.78;2097992;28;20056;-86
2021/11/11 00:51:47;;;;;;;3.83;2.97;;;;;;;-0.51;100.00;93505.41;2097973;28;20067;-83
2021/11/11 00:52:49;;;;;;;4.53;3.20;;;;;;;-0.56;100.00;93510.91;2114859;28;20023;-84
2021/11/11 00:53:50;;;;;;;3.45;3.15;;;;;;;-0.65;100.00;93507.66;2112643;28;20027;-85
2021/11/11 00:54:51;;;;;;;4.43;3.40;;;;;;;-0.69;100.00;93507.56;2102564;28;20015;-81
2021/11/11 00:55:52;;;;;;;3.67;3.08;;;;;;;-0.68;100.00;93503.84;2111722;28;20047;-82
2021/11/11 00:56:53;;;;;;;7.38;3.67;;;;;;;-0.72;100.00;93510.09;2106173;28;20024;-80
2021/11/11 00:57:54;;;;;;;3.85;3.03;;;;;;;-0.72;100.00;93516.09;2096149;28;20103;-84
2021/11/11 00:58:56;;;;;;;4.18;3.08;;;;;;;-0.70;100.00;93521.78;2098049;28;20056;-84
2021/11/11 00:59:57;;;;;;;4.72;3.15;;;;;;;-0.70;100.00;93513.13;2098553;28;20069;-82
2021/11/11 01:01:01;;;;;;;4.18;2.85;;;;;;;-0.74;100.00;93522.78;2104601;28;20028;-83
2021/11/11 01:02:07;;;;;;;5.20;2.75;;;;;;;-0.76;100.00;93512.63;2101787;28;20027;-81
2021/11/11 01:03:13;;;;;;;4.97;3.33;;;;;;;-0.67;100.00;93518.47;2106499;27;20024;-87
2021/11/11 01:04:14;;;;;;;4.60;3.38;;;;;;;-0.69;100.00;93512.81;2123894;27;20680;-86
2021/11/11 01:05:15;;;;;;;4.60;3.25;;;;;;;-0.68;100.00;93516.97;2112686;28;20085;-84
2021/11/11 01:06:17;;;;;;;3.97;3.03;;;;;;;-0.63;100.00;93514.09;2106523;28;20546;-84
2021/11/11 01:07:20;;;;;;;3.95;3.38;;;;;;;-0.69;100.00;93533.06;2097822;28;20112;-85
2021/11/11 01:08:22;;;;;;;5.97;3.72;;;;;;;-0.68;100.00;93527.47;2098648;28;20103;-82
2021/11/11 01:09:23;;;;;;;3.15;2.83;;;;;;;-0.67;100.00;93515.09;2114682;27;20023;-84
2021/11/11 01:10:24;;;;;;;4.65;2.90;;;;;;;-0.64;100.00;93533.56;2114453;28;20020;-82
2021/11/11 01:11:26;;;;;;;6.35;3.05;;;;;;;-0.65;100.00;93516.31;2098046;28;20492;-86
2021/11/11 01:12:27;;;;;;;3.70;3.00;;;;;;;-0.70;100.00;93523.63;2096985;28;20063;-84
2021/11/11 01:13:28;;;;;;;4.82;3.03;;;;;;;-0.73;100.00;93526.94;2110340;28;20019;-85
2021/11/11 01:14:29;;;;;;;3.53;2.78;;;;;;;-0.62;100.00;93520.09;2104869;28;20111;-81
2021/11/11 01:15:32;;;;;;;4.10;3.05;;;;;;;-0.66;100.00;93520.03;2104338;28;20058;-83
2021/11/11 01:16:33;;;;;;;6.20;3.15;;;;;;;-0.66;100.00;93512.16;2112419;28;20082;-85
2021/11/11 01:17:34;;;;;;;4.47;2.80;;;;;;;-0.71;100.00;93506.38;2099036;28;20156;-85
2021/11/11 01:18:36;;;;;;;6.18;3.10;;;;;;;-0.72;100.00;93510.84;2106196;28;20507;-82
2021/11/11 01:19:37;;;;;;;5.88;3.03;;;;;;;-0.83;100.00;93507.94;2114468;28;20047;-83
2021/11/11 01:20:38;;;;;;;5.03;3.40;;;;;;;-0.83;100.00;93517.69;2114665;28;20015;-89
2021/11/11 01:21:39;;;;;;;4.07;3.15;;;;;;;-0.79;100.00;93513.28;2097602;28;20043;-82
2021/11/11 01:22:42;;;;;;;3.75;3.22;;;;;;;-0.78;100.00;93507.72;2097681;28;20438;-81
2021/11/11 01:23:43;;;;;;;2.92;2.60;;;;;;;-0.80;100.00;93504.63;2090151;28;20469;-84
2021/11/11 01:24:44;;;;;;;5.15;3.00;;;;;;;-0.78;100.00;93502.47;2097661;28;20035;-86
2021/11/11 01:25:45;;;;;;;5.47;3.10;;;;;;;-0.79;100.00;93498.31;2097611;28;20055;-85
2021/11/11 01:26:47;;;;;;;4.25;3.20;;;;;;;-0.80;100.00;93496.75;2089540;28;20029;-84
2021/11/11 01:27:48;;;;;;;4.43;2.63;;;;;;;-0.83;100.00;93510.56;2092798;28;20377;-87
2021/11/11 01:28:49;;;;;;;3.47;2.95;;;;;;;-0.80;100.00;93504.63;2105527;28;20147;-88
2021/11/11 01:29:50;;;;;;;5.32;3.10;;;;;;;-0.82;100.00;93506.09;2131401;27;20030;-85
2021/11/11 01:30:51;;;;;;;3.50;3.05;;;;;;;-0.86;100.00;93500.75;2106041;28;20081;-82
2021/11/11 01:31:52;;;;;;;5.18;2.88;;;;;;;-0.79;100.00;93508.03;2106324;28;20110;-82
2021/11/11 01:32:53;;;;;;;3.63;3.00;;;;;;;-0.80;100.00;93509.13;2114550;28;20032;-87
2021/11/11 01:33:54;;;;;;;4.35;2.60;;;;;;;-0.84;100.00;93510.88;2097868;28;20503;-84
2021/11/11 01:34:56;;;;;;;3.13;2.80;;;;;;;-0.82;100.00;93504.22;2101930;28;20504;-83
2021/11/11 01:35:57;;;;;;;4.55;2.92;;;;;;;-0.83;100.00;93494.06;2108159;28;20062;-83
2021/11/11 01:36:58;;;;;;;4.47;2.83;;;;;;;-0.79;100.00;93498.31;2106167;28;20016;-83
2021/11/11 01:37:59;;;;;;;3.42;2.88;;;;;;;-0.85;100.00;93496.25;2114470;28;20023;-83
2021/11/11 01:39:01;;;;;;;7.63;2.75;;;;;;;-0.88;100.00;93491.66;2104161;28;20020;-83
2021/11/11 01:40:03;;;;;;;3.38;2.75;;;;;;;-0.86;100.00;93495.50;2108750;28;20103;-82
2021/11/11 01:41:05;;;;;;;3.55;2.65;;;;;;;-0.85;100.00;93497.00;2112824;28;20028;-82
2021/11/11 01:42:07;;;;;;;3.38;2.60;;;;;;;-0.83;100.00;93483.56;2117320;28;20020;-82
2021/11/11 01:43:08;;;;;;;4.57;3.05;;;;;;;-0.85;100.00;93486.50;2095278;28;20028;-85
2021/11/11 01:44:09;;;;;;;7.05;2.88;;;;;;;-0.85;100.00;93485.75;2099916;28;20028;-85
2021/11/11 01:45:11;;;;;;;4.20;2.85;;;;;;;-0.91;100.00;93489.72;2104392;27;20016;-82
2021/11/11 01:46:12;;;;;;;4.10;2.80;;;;;;;-1.03;100.00;93483.41;2118549;27;20022;-84
2021/11/11 01:47:13;;;;;;;3.03;2.70;;;;;;;-0.92;100.00;93488.19;2105594;28;20094;-83
2021/11/11 01:48:17;;;;;;;3.92;2.78;;;;;;;-0.82;100.00;93482.47;2094431;28;20028;-83
2021/11/11 01:49:18;;;;;;;5.22;2.80;;;;;;;-0.85;100.00;93478.63;2094651;28;20043;-82
2021/11/11 01:50:20;;;;;;;4.22;2.60;;;;;;;-0.84;100.00;93477.53;2094711;28;20019;-83
2021/11/11 01:51:22;;;;;;;3.20;2.90;;;;;;;-0.91;100.00;93473.97;2097117;28;20017;-87
2021/11/11 01:52:25;;;;;;;3.75;2.83;;;;;;;-0.98;100.00;93471.91;2106076;28;20023;-82
2021/11/11 01:53:26;;;;;;;3.13;2.42;;;;;;;-0.98;100.00;93468.53;2096066;28;20514;-88
2021/11/11 01:54:27;;;;;;;2.88;2.67;;;;;;;-0.88;100.00;93473.28;2094146;28;20096;-83
2021/11/11 01:55:29;;;;;;;3.38;2.70;;;;;;;-0.88;100.00;93468.84;2112663;28;20015;-82
2021/11/11 01:56:31;;;;;;;3.60;2.50;;;;;;;-0.79;100.00;93471.28;2112918;28;20129;-83
2021/11/11 01:57:32;;;;;;;2.50;2.30;;;;;;;-0.81;100.00;93474.25;2103587;28;20020;-85
2021/11/11 01:58:34;;;;;;;4.20;2.75;;;;;;;-0.85;100.00;93472.63;2097924;28;20020;-83
2021/11/11 01:59:35;;;;;;;4.13;2.63;;;;;;;-0.87;100.00;93472.22;2102653;28;20542;-84
2021/11/11 02:00:43;;;;;;;4.43;2.17;;;;;;;-0.92;100.00;93473.22;2109816;28;20089;-84
2021/11/11 02:01:44;;;;;;;3.70;2.38;;;;;;;-0.92;100.00;93469.81;2097061;28;20020;-86
2021/11/11 02:02:52;;;;;;;3.25;2.90;;;;;;;-0.91;100.00;93463.47;2094294;28;20029;-86
2021/11/11 02:03:53;;;;;;;4.65;2.60;;;;;;;-0.91;100.00;93469.50;2100515;28;20062;-83
2021/11/11 02:04:55;;;;;;;4.85;2.78;;;;;;;-0.94;100.00;93474.63;2105943;28;20033;-85
2021/11/11 02:05:56;;;;;;;3.33;2.80;;;;;;;-0.95;100.00;93471.25;2098503;28;20020;-83
2021/11/11 02:06:58;;;;;;;3.63;2.63;;;;;;;-0.96;100.00;93468.97;2112363;28;20468;-85
2021/11/11 02:07:59;;;;;;;5.03;2.95;;;;;;;-1.02;100.00;93466.56;2105913;28;20024;-84
2021/11/11 02:09:00;;;;;;;3.15;2.47;;;;;;;-1.00;100.00;93463.63;2097643;28;20024;-85
2021/11/11 02:10:02;;;;;;;3.92;2.40;;;;;;;-0.98;100.00;93465.91;2104904;28;20040;-83
2021/11/11 02:11:03;;;;;;;3.75;2.47;;;;;;;-0.99;100.00;93464.38;2098308;28;20122;-87
2021/11/11 02:12:04;;;;;;;5.97;2.65;;;;;;;-0.99;100.00;93459.16;2097266;28;20023;-87
2021/11/11 02:13:06;;;;;;;2.92;2.13;;;;;;;-0.93;100.00;93465.66;2099526;28;20581;-82
2021/11/11 02:14:07;;;;;;;2.70;2.50;;;;;;;-0.93;100.00;93458.56;2098171;28;20029;-85
2021/11/11 02:15:10;;;;;;;2.40;2.20;;;;;;;-0.98;100.00;93463.28;2106162;28;20033;-85
2021/11/11 02:16:11;;;;;;;3.10;2.33;;;;;;;-0.99;100.00;93457.28;2112184;28;20050;-87
2021/11/11 02:17:12;;;;;;;2.97;2.55;;;;;;;-0.98;100.00;93464.03;2104312;28;20035;-85
2021/11/11 02:18:13;;;;;;;5.88;2.45;;;;;;;-0.97;100.00;93465.56;2105859;28;20077;-84
2021/11/11 02:19:14;;;;;;;3.90;2.47;;;;;;;-1.04;100.00;93463.53;2105833;28;20468;-85
2021/11/11 02:20:22;;;;;;;3.40;2.47;;;;;;;-1.00;100.00;93473.38;2114877;28;20030;-83
2021/11/11 02:21:23;;;;;;;4.47;2.38;;;;;;;-0.98;100.00;93465.91;2123916;27;20023;-82
2021/11/11 02:22:24;;;;;;;3.92;2.53;;;;;;;-0.96;100.00;93469.75;2116259;28;20023;-82
2021/11/11 02:23:25;;;;;;;2.60;2.15;;;;;;;-0.92;100.00;93467.97;2104637;28;20099;-85
2021/11/11 02:24:31;;;;;;;3.50;2.40;;;;;;;-0.96;100.00;93468.97;2115293;28;20015;-81
2021/11/11 02:25:32;;;;;;;3.20;2.70;;;;;;;-0.98;100.00;93466.66;2104030;28;20024;-86
2021/11/11 02:26:33;;;;;;;3.22;2.45;;;;;;;-0.96;100.00;93464.50;2089225;28;20021;-84
2021/11/11 02:27:34;;;;;;;3.53;2.28;;;;;;;-0.94;100.00;93462.28;2106182;28;20464;-85
2021/11/11 02:28:36;;;;;;;7.68;2.47;;;;;;;-0.99;100.00;93456.53;2112238;28;20019;-82
2021/11/11 02:29:37;;;;;;;3.78;2.58;;;;;;;-1.06;100.00;93464.94;2105729;28;20404;-85
2021/11/11 02:30:41;;;;;;;2.50;2.30;;;;;;;-1.10;100.00;93469.31;2105797;28;20011;-84
2021/11/11 02:31:42;;;;;;;7.32;2.47;;;;;;;-1.12;100.00;93467.06;2112519;28;20046;-83
2021/11/11 02:32:43;;;;;;;3.88;2.30;;;;;;;-1.08;100.00;93467.91;2105650;28;20047;-82
2021/11/11 02:33:54;;;;;;;4.38;2.70;;;;;;;-1.11;100.00;93467.81;2104993;28;20516;-85
2021/11/11 02:34:55;;;;;;;3.22;2.67;;;;;;;-1.12;100.00;93464.44;2107226;28;20024;-84
2021/11/11 02:35:57;;;;;;;3.97;2.40;;;;;;;-1.05;100.00;93469.88;2107810;28;20020;-87
2021/11/11 02:37:04;;;;;;;3.53;2.58;;;;;;;-1.03;100.00;93472.91;2087206;28;20029;-85
2021/11/11 02:38:05;;;;;;;4.22;2.63;;;;;;;-0.84;100.00;93466.28;2093448;28;20021;-84
2021/11/11 02:39:06;;;;;;;3.33;2.72;;;;;;;-0.97;100.00;93470.06;2097579;28;20126;-85
2021/11/11 02:40:14;;;;;;;4.75;2.25;;;;;;;-0.95;100.00;93471.25;2112040;28;20461;-87
2021/11/11 02:41:17;;;;;;;4.65;2.22;;;;;;;-0.94;100.00;93469.38;2096908;28;20023;-83
2021/11/11 02:42:18;;;;;;;5.78;2.30;;;;;;;-0.98;100.00;93471.16;2102276;28;20373;-86
2021/11/11 02:43:20;;;;;;;3.60;2.65;;;;;;;-1.05;100.00;93475.13;2113763;28;20027;-86
2021/11/11 02:44:21;;;;;;;2.90;2.60;;;;;;;-1.05;100.00;93469.13;2112537;28;20128;-85
2021/11/11 02:45:29;;;;;;;3.60;2.60;;;;;;;-1.11;100.00;93475.69;2111881;28;20072;-86
2021/11/11 02:46:30;;;;;;;3.40;2.55;;;;;;;-1.05;100.00;93477.00;2096819;28;20028;-83
2021/11/11 02:47:34;;;;;;;5.25;2.83;;;;;;;-1.04;100.00;93483.75;2106600;28;20560;-83
2021/11/11 02:48:36;;;;;;;3.30;2.58;;;;;;;-1.06;100.00;93475.44;2097381;28;20031;-86
2021/11/11 02:49:37;;;;;;;3.80;2.42;;;;;;;-1.13;100.00;93473.41;2097991;28;20114;-87
2021/11/11 02:50:38;;;;;;;3.08;2.53;;;;;;;-1.12;100.00;93476.78;2106344;28;20040;-84
2021/11/11 02:51:39;;;;;;;11.90;2.53;;;;;;;-1.12;100.00;93476.78;2102016;28;20082;-81
2021/11/11 02:52:41;;;;;;;5.93;2.85;;;;;;;-1.12;100.00;93476.78;2101332;28;20025;-82
2021/11/11 02:53:42;;;;;;;4.60;2.40;;;;;;;-1.15;100.00;93480.81;2100003;28;20025;-82
2021/11/11 02:54:43;;;;;;;3.30;3.00;;;;;;;-1.16;100.00;93471.44;2098018;28;20013;-85
2021/11/11 02:55:45;;;;;;;2.65;2.28;;;;;;;-1.15;100.00;93469.56;2101098;28;20025;-83
2021/11/11 02:56:46;;;;;;;2.47;2.28;;;;;;;-1.13;100.00;93480.50;2097463;28;20042;-83
2021/11/11 02:57:47;;;;;;;4.07;2.75;;;;;;;-1.12;100.00;93476.78;2104885;28;20028;-82
2021/11/11 02:58:48;;;;;;;4.43;2.75;;;;;;;-1.12;100.00;93477.53;2105754;28;20024;-82
2021/11/11 02:59:53;;;;;;;3.53;2.40;;;;;;;-1.06;100.00;93483.31;2095524;28;20107;-82
2021/11/11 03:01:00;;;;;;;5.03;2.88;;;;;;;-1.05;100.00;93474.38;2095849;28;20510;-85
2021/11/11 03:02:01;;;;;;;3.40;2.78;;;;;;;-1.07;100.00;93479.16;2097963;28;20032;-82
2021/11/11 03:03:02;;;;;;;4.03;2.47;;;;;;;-1.07;100.00;93482.53;2098528;28;20043;-86
2021/11/11 03:04:03;;;;;;;3.80;2.17;;;;;;;-1.12;100.00;93480.16;2103808;28;20456;-85
2021/11/11 03:05:07;;;;;;;4.60;3.30;;;;;;;-1.11;100.00;93479.06;2098320;28;20024;-85
2021/11/11 03:06:08;;;;;;;2.88;2.40;;;;;;;-1.13;100.00;93475.25;2101743;28;20020;-86
2021/11/11 03:07:09;;;;;;;4.10;2.85;;;;;;;-1.11;100.00;93473.81;2096923;28;20027;-86
2021/11/11 03:08:12;;;;;;;4.20;2.65;;;;;;;-1.18;100.00;93475.50;2107162;28;20376;-83
2021/11/11 03:09:16;;;;;;;3.50;2.38;;;;;;;-0.97;100.00;93477.91;2107019;28;20016;-85
2021/11/11 03:10:25;;;;;;;6.38;2.47;;;;;;;-1.09;100.00;93476.88;2089064;28;20024;-82
2021/11/11 03:11:34;;;;;;;5.03;3.00;;;;;;;-1.12;100.00;93477.53;2109057;27;20123;-85
2021/11/11 03:12:36;;;;;;;6.45;2.78;;;;;;;-1.16;100.00;93479.28;2117658;27;20031;-84
2021/11/11 03:13:37;;;;;;;3.38;2.42;;;;;;;-1.18;100.00;93480.75;2100432;28;20455;-86
2021/11/11 03:14:38;;;;;;;4.00;2.17;;;;;;;-1.16;100.00;93481.16;2098650;28;20017;-83
2021/11/11 03:15:41;;;;;;;2.72;2.45;;;;;;;-1.14;100.00;93485.00;2090894;28;20053;-83
2021/11/11 03:16:42;;;;;;;3.35;2.67;;;;;;;-1.13;100.00;93486.50;2106165;28;20039;-82
2021/11/11 03:17:43;;;;;;;3.53;2.22;;;;;;;-1.10;100.00;93488.47;2109098;28;20012;-84
2021/11/11 03:18:44;;;;;;;3.88;2.70;;;;;;;-1.14;100.00;93484.19;2107442;28;20353;-84
2021/11/11 03:19:46;;;;;;;3.88;2.40;;;;;;;-1.17;100.00;93488.28;2115557;28;20025;-82
2021/11/11 03:20:48;;;;;;;3.75;2.90;;;;;;;-1.19;100.00;93485.19;2098837;28;20436;-86
2021/11/11 03:21:49;;;;;;;3.10;2.60;;;;;;;-1.11;100.00;93488.78;2090828;28;20021;-83
2021/11/11 03:22:51;;;;;;;3.30;2.53;;;;;;;-1.15;100.00;93487.94;2099915;28;20512;-84
2021/11/11 03:23:52;;;;;;;4.20;2.67;;;;;;;-1.20;100.00;93490.78;2105078;28;20032;-84
2021/11/11 03:24:53;;;;;;;3.47;3.13;;;;;;;-1.18;100.00;93492.00;2098480;28;20559;-82
2021/11/11 03:25:54;;;;;;;2.80;2.17;;;;;;;-1.12;100.00;93495.13;2098588;28;20024;-85
2021/11/11 03:26:55;;;;;;;3.35;2.60;;;;;;;-1.13;100.00;93491.75;2113654;28;20106;-84
2021/11/11 03:27:57;;;;;;;4.07;2.53;;;;;;;-1.15;100.00;93493.16;2122691;27;20053;-87
2021/11/11 03:28:58;;;;;;;3.28;2.40;;;;;;;-1.08;100.00;93485.50;2107009;28;20480;-88
2021/11/11 03:29:59;;;;;;;4.10;2.38;;;;;;;-1.05;100.00;93488.25;2096466;28;20119;-85
2021/11/11 03:31:00;;;;;;;3.85;2.45;;;;;;;-0.91;100.00;93481.84;2105497;27;20024;-83
2021/11/11 03:32:02;;;;;;;2.95;2.70;;;;;;;-0.94;100.00;93491.16;2109932;28;20039;-82
2021/11/11 03:33:05;;;;;;;4.00;2.60;;;;;;;-0.99;100.00;93495.88;2104154;28;20056;-81
2021/11/11 03:34:06;;;;;;;3.80;2.92;;;;;;;-1.02;100.00;93489.41;2109625;28;20073;-85
2021/11/11 03:35:09;;;;;;;3.10;2.30;;;;;;;-1.09;100.00;93492.63;2098903;28;20034;-88
2021/11/11 03:36:10;;;;;;;2.40;2.20;;;;;;;-1.13;100.00;93494.38;2098639;28;20059;-84
2021/11/11 03:37:11;;;;;;;5.40;2.60;;;;;;;-1.11;100.00;93496.66;2113211;28;20023;-87
2021/11/11 03:38:12;;;;;;;4.32;2.38;;;;;;;-1.12;100.00;93498.53;2115147;28;20023;-86
2021/11/11 03:39:14;;;;;;;5.10;2.67;;;;;;;-1.12;100.00;93493.28;2098679;28;20602;-84
2021/11/11 03:40:23;;;;;;;2.90;2.50;;;;;;;-1.09;100.00;93495.25;2098792;28;20506;-84
2021/11/11 03:41:25;;;;;;;4.93;2.63;;;;;;;-1.10;100.00;93493.72;2092589;28;20025;-83
2021/11/11 03:42:26;;;;;;;3.20;2.47;;;;;;;-1.09;100.00;93497.88;2098733;28;20025;-84
2021/11/11 03:43:27;;;;;;;4.18;2.60;;;;;;;-1.11;100.00;93494.03;2106556;28;20012;-86
2021/11/11 03:44:28;;;;;;;2.47;2.28;;;;;;;-1.17;100.00;93504.00;2102321;28;20016;-83
2021/11/11 03:45:31;;;;;;;4.88;2.67;;;;;;;-1.18;100.00;93501.72;2098499;28;20024;-83
2021/11/11 03:46:32;;;;;;;3.95;2.42;;;;;;;-1.16;100.00;93502.13;2115701;27;20026;-84
2021/11/11 03:47:33;;;;;;;4.07;2.80;;;;;;;-1.13;100.00;93504.88;2111233;28;20489;-82
2021/11/11 03:48:34;;;;;;;6.15;2.67;;;;;;;-1.18;100.00;93507.72;2110287;28;20040;-87
2021/11/11 03:49:37;;;;;;;6.22;2.80;;;;;;;-1.24;100.00;93516.91;2110924;28;20063;-82
2021/11/11 03:50:38;;;;;;;5.82;2.50;;;;;;;-1.23;100.00;93510.56;2101182;28;20042;-86
2021/11/11 03:51:40;;;;;;;4.50;2.33;;;;;;;-1.26;100.00;93524.34;2090133;28;20050;-84
2021/11/11 03:52:41;;;;;;;2.75;2.35;;;;;;;-1.31;100.00;93522.72;2098629;28;20028;-88
2021/11/11 03:53:44;;;;;;;3.65;2.35;;;;;;;-1.31;100.00;93525.34;2098651;28;20048;-84
2021/11/11 03:54:46;;;;;;;4.55;2.60;;;;;;;-1.31;100.00;93522.72;2098776;28;20024;-88
2021/11/11 03:55:47;;;;;;;3.38;2.83;;;;;;;-1.31;100.00;93527.97;2098336;28;20511;-83
2021/11/11 03:56:49;;;;;;;4.78;2.97;;;;;;;-1.30;100.00;93528.72;2115369;28;20065;-84
2021/11/11 03:57:51;;;;;;;3.90;2.42;;;;;;;-1.24;100.00;93529.25;2108965;28;20024;-82
2021/11/11 03:58:53;;;;;;;3.17;2.45;;;;;;;-1.22;100.00;93530.47;2105106;28;20434;-82
2021/11/11 03:59:56;;;;;;;3.60;2.38;;;;;;;-1.22;100.00;93530.47;2104948;28;20111;-83
2021/11/11 04:00:57;;;;;;;4.93;2.65;;;;;;;-1.18;100.00;93531.34;2105329;28;20026;-83
2021/11/11 04:01:58;;;;;;;4.90;3.22;;;;;;;-1.17;100.00;93524.97;2098399;28;20020;-84
2021/11/11 04:02:59;;;;;;;4.25;3.10;;;;;;;-1.14;100.00;93526.94;2098293;28;20017;-82
2021/11/11 04:04:00;;;;;;;5.78;3.00;;;;;;;-1.17;100.00;93529.47;2103070;28;20461;-83
2021/11/11 04:05:02;;;;;;;5.78;2.80;;;;;;;-1.29;100.00;93525.75;2090122;28;20052;-84
2021/11/11 04:06:03;;;;;;;5.50;3.05;;;;;;;-1.12;100.00;93521.38;2082468;28;20482;-85
2021/11/11 04:07:04;;;;;;;3.15;2.60;;;;;;;-1.16;100.00;93523.88;2094278;28;20017;-83
2021/11/11 04:08:05;;;;;;;3.40;2.60;;;;;;;-1.14;100.00;93518.28;2098696;28;20020;-85
2021/11/11 04:09:07;;;;;;;5.50;2.92;;;;;;;-1.20;100.00;93523.00;2090434;28;20446;-85
2021/11/11 04:10:10;;;;;;;3.33;2.53;;;;;;;-1.24;100.00;93521.38;2090275;28;20049;-84
2021/11/11 04:11:11;;;;;;;4.35;2.35;;;;;;;-1.24;100.00;93524.78;2107581;28;20661;-83
2021/11/11 04:12:12;;;;;;;4.05;2.60;;;;;;;-1.29;100.00;93525.00;2101817;28;20040;-84
2021/11/11 04:13:13;;;;;;;3.13;2.20;;;;;;;-1.25;100.00;93523.25;2086097;28;20029;-85
2021/11/11 04:14:15;;;;;;;5.38;2.78;;;;;;;-1.25;100.00;93519.88;2098186;28;20039;-84
2021/11/11 04:15:16;;;;;;;3.22;2.35;;;;;;;-1.24;100.00;93522.16;2107047;28;20035;-85
2021/11/11 04:16:17;;;;;;;2.72;2.38;;;;;;;-1.25;100.00;93519.88;2115350;28;20035;-87
2021/11/11 04:17:18;;;;;;;3.10;2.40;;;;;;;-1.34;100.00;93520.75;2098419;28;20035;-82
2021/11/11 04:18:19;;;;;;;5.38;2.60;;;;;;;-1.33;100.00;93522.28;2106928;28;20031;-81
2021/11/11 04:19:20;;;;;;;2.65;2.33;;;;;;;-1.38;100.00;93519.13;2124440;27;20027;-83
2021/11/11 04:20:21;;;;;;;3.15;2.33;;;;;;;-1.33;100.00;93518.88;2107096;28;20111;-89
2021/11/11 04:21:23;;;;;;;2.95;2.25;;;;;;;-1.33;100.00;93524.13;2098758;28;20079;-85
2021/11/11 04:22:23;;;;;;;2.55;2.13;;;;;;;-1.33;100.00;93513.66;2098395;28;20055;-87
2021/11/11 04:23:24;;;;;;;3.40;1.98;;;;;;;-1.32;100.00;93518.56;2098491;28;20412;-84
2021/11/11 04:24:25;;;;;;;3.33;2.40;;;;;;;-1.42;100.00;93516.38;2106913;28;20024;-84
2021/11/11 04:25:51;;;;;;;4.93;2.55;;;;;;;-1.41;100.00;93515.28;2106743;28;20028;-84
2021/11/11 04:27:06;;;;;;;4.32;2.50;;;;;;;-1.34;100.00;93520.00;2106832;28;20032;-85
2021/11/11 04:28:13;;;;;;;3.35;2.72;;;;;;;-1.33;100.00;93513.66;2100686;28;20033;-86
2021/11/11 04:29:20;;;;;;;3.17;2.45;;;;;;;-1.35;100.00;93521.09;2091775;28;20025;-85
2021/11/11 04:30:30;;;;;;;3.00;2.53;;;;;;;-1.42;100.00;93513.75;2100445;28;20024;-85
2021/11/11 04:31:33;;;;;;;2.50;2.20;;;;;;;-1.41;100.00;93517.16;2099821;28;20083;-88
2021/11/11 04:32:35;;;;;;;3.72;2.63;;;;;;;-1.39;100.00;93517.59;2106652;28;20388;-85
2021/11/11 04:33:38;;;;;;;2.88;2.35;;;;;;;-1.38;100.00;93517.25;2090329;28;20570;-85
2021/11/11 04:34:41;;;;;;;4.20;2.60;;;;;;;-1.38;100.00;93511.25;2106726;28;20511;-82
2021/11/11 04:35:47;;;;;;;3.13;2.58;;;;;;;-1.42;100.00;93513.00;2098730;28;20074;-86
2021/11/11 04:49:40;;;;;;;4.38;2.58;;;;;;;-1.47;100.00;93500.13;2114989;28;20088;-83
2021/11/11 05:04:21;;;;;;;4.78;2.97;;;;;;;-1.47;100.00;93497.50;2109121;28;20032;-86
2021/11/11 05:05:23;;;;;;;5.90;3.13;;;;;;;-1.46;100.00;93499.78;2106634;28;20373;-88
2021/11/11 05:06:24;;;;;;;3.85;2.75;;;;;;;-1.50;100.00;93503.41;2106461;28;20491;-84
2021/11/11 05:07:25;;;;;;;5.38;2.95;;;;;;;-1.48;100.00;93498.59;2106545;28;20028;-86
2021/11/11 05:08:26;;;;;;;4.65;3.22;;;;;;;-1.38;100.00;93500.75;2106509;28;20020;-85
2021/11/11 05:09:27;;;;;;;5.28;2.92;;;;;;;-1.32;100.00;93499.44;2106572;28;20031;-84
2021/11/11 05:10:28;;;;;;;5.75;2.97;;;;;;;-1.30;100.00;93502.50;2114902;28;20023;-85
2021/11/11 05:11:29;;;;;;;6.80;3.00;;;;;;;-1.32;100.00;93502.06;2115028;28;20102;-85
2021/11/11 05:12:30;;;;;;;5.07;3.20;;;;;;;-1.34;100.00;93496.38;2106387;28;20027;-85
2021/11/11 05:13:32;;;;;;;5.57;2.63;;;;;;;-1.36;100.00;93504.59;2098124;28;20054;-83
2021/11/11 05:14:33;;;;;;;5.82;3.20;;;;;;;-1.41;100.00;93496.94;2106737;28;20024;-83